Time;durP1;ratioP1;P1;durP2;ratioP2;P2;SDS_P1;SDS_P2;PMS_P1;PMS_P2;Temp;Humidity;BMP_temperature;BMP_pressure;BME280_temperature;BME280_humidity;BME280_pressure;Samples;Min_cycle;Max_cycle;Signal;HPM_P1;HPM_P2
2023/08/01 00:01:38;;;;;;;;;;;;;;;19.44;76.26;99686.94;4205158;28;20441;-70
2023/08/01 00:03:43;;;;;;;;;;;;;;;19.42;76.26;99686.41;4205098;28;20035;-71
2023/08/01 00:05:48;;;;;;;;;;;;;;;19.39;76.82;99684.19;4205696;28;20446;-72
2023/08/01 00:07:51;;;;;;;;;;;;;;;19.37;77.04;99675.41;4204349;28;20441;-71
2023/08/01 00:09:52;;;;;;;;;;;;;;;19.33;77.41;99701.66;4171180;28;20025;-71
2023/08/01 00:11:56;;;;;;;;;;;;;;;19.30;77.80;99676.72;4205583;28;20394;-72
2023/08/01 00:14:07;;;;;;;;;;;;;;;19.27;78.04;99680.78;4186876;28;20015;-71
2023/08/01 00:16:09;;;;;;;;;;;;;;;19.25;78.53;99672.84;4205208;28;20007;-72
2023/08/01 00:18:20;;;;;;;;;;;;;;;19.20;79.22;99667.31;4204667;28;20364;-71
2023/08/01 00:20:24;;;;;;;;;;;;;;;19.19;79.20;99676.63;4187069;28;19935;-71
2023/08/01 00:22:27;;;;;;;;;;;;;;;19.13;79.96;99676.84;4204673;28;20035;-71
2023/08/01 00:24:29;;;;;;;;;;;;;;;19.09;80.36;99676.53;4203997;28;20040;-71
2023/08/01 00:26:34;;;;;;;;;;;;;;;19.04;80.97;99663.63;4204472;28;20015;-70
2023/08/01 00:28:36;;;;;;;;;;;;;;;18.99;81.24;99663.56;4205045;28;19928;-71
2023/08/01 00:30:39;;;;;;;;;;;;;;;18.94;82.05;99658.06;4186252;28;20011;-72
2023/08/01 00:32:51;;;;;;;;;;;;;;;18.91;82.47;99664.84;4204421;28;20382;-71
2023/08/01 00:34:59;;;;;;;;;;;;;;;18.86;82.96;99648.41;4187483;28;20019;-71
2023/08/01 00:37:05;;;;;;;;;;;;;;;18.83;83.34;99648.06;4204903;28;20032;-71
2023/08/01 00:39:10;;;;;;;;;;;;;;;18.81;84.17;99647.47;4203235;28;20019;-71
2023/08/01 00:41:12;;;;;;;;;;;;;;;18.79;84.42;99646.91;4204933;28;20454;-71
2023/08/01 00:43:17;;;;;;;;;;;;;;;18.77;84.41;99644.44;4170660;28;20032;-71
2023/08/01 00:45:19;;;;;;;;;;;;;;;18.77;84.21;99635.41;4186277;28;20019;-71
2023/08/01 00:47:26;;;;;;;;;;;;;;;18.76;84.32;99636.50;4202773;28;20022;-70
2023/08/01 00:49:31;;;;;;;;;;;;;;;18.73;84.68;99624.19;4186765;28;20446;-70
2023/08/01 00:51:36;;;;;;;;;;;;;;;18.73;83.94;99615.97;4169207;28;20023;-71
2023/08/01 00:53:40;;;;;;;;;;;;;;;18.72;84.22;99611.56;4202749;28;20027;-71
2023/08/01 00:55:45;;;;;;;;;;;;;;;18.70;84.84;99611.03;4204761;28;20023;-71
2023/08/01 00:57:55;;;;;;;;;;;;;;;18.69;84.93;99609.38;4204502;28;20033;-71
2023/08/01 01:00:02;;;;;;;;;;;;;;;18.67;85.59;99608.81;4169809;28;20019;-71
2023/08/01 01:02:04;;;;;;;;;;;;;;;18.64;85.27;99614.78;4193426;28;20748;-71
2023/08/01 01:04:06;;;;;;;;;;;;;;;18.63;85.82;99604.91;4204271;28;20025;-72
2023/08/01 01:06:10;;;;;;;;;;;;;;;18.60;86.08;99599.97;4186118;28;20006;-71
2023/08/01 01:08:12;;;;;;;;;;;;;;;18.58;86.21;99596.69;4186145;28;19955;-71
2023/08/01 01:10:15;;;;;;;;;;;;;;;18.56;86.39;99596.94;4188014;28;20457;-71
2023/08/01 01:12:21;;;;;;;;;;;;;;;18.51;87.13;99602.31;4187533;28;20015;-71
2023/08/01 01:14:28;;;;;;;;;;;;;;;18.48;87.40;99597.38;4187026;28;20027;-71
2023/08/01 01:16:30;;;;;;;;;;;;;;;18.46;87.19;99589.44;4185407;28;20012;-72
2023/08/01 01:18:31;;;;;;;;;;;;;;;18.47;87.01;99582.06;4186812;28;20016;-71
2023/08/01 01:20:36;;;;;;;;;;;;;;;18.43;87.37;99581.78;4187695;28;20320;-72
2023/08/01 01:22:38;;;;;;;;;;;;;;;18.42;87.16;99582.84;4186102;28;20015;-71
2023/08/01 01:24:42;;;;;;;;;;;;;;;18.42;87.23;99576.56;4184507;28;20458;-71
2023/08/01 01:26:43;;;;;;;;;;;;;;;18.43;87.02;99567.25;4187077;28;20035;-71
2023/08/01 01:28:45;;;;;;;;;;;;;;;18.43;87.07;99554.44;4170241;28;20481;-71
2023/08/01 01:30:46;;;;;;;;;;;;;;;18.41;87.24;99537.44;4169423;28;20024;-71
2023/08/01 01:32:51;;;;;;;;;;;;;;;18.40;87.46;99534.97;4184974;28;19925;-71
2023/08/01 01:34:53;;;;;;;;;;;;;;;18.40;86.98;99522.16;4187775;28;20023;-71
2023/08/01 01:37:00;;;;;;;;;;;;;;;18.40;87.05;99535.81;4186252;28;20035;-70
2023/08/01 01:39:02;;;;;;;;;;;;;;;18.40;87.44;99522.16;4198623;28;20030;-71
2023/08/01 01:41:04;;;;;;;;;;;;;;;18.41;86.81;99526.50;4201361;28;20363;-70
2023/08/01 01:43:15;;;;;;;;;;;;;;;18.41;87.05;99522.97;4183109;28;20346;-71
2023/08/01 01:45:20;;;;;;;;;;;;;;;18.41;87.57;99521.03;4185851;28;20031;-71
2023/08/01 01:47:22;;;;;;;;;;;;;;;18.40;87.26;99513.09;4187176;28;20568;-71
2023/08/01 01:49:34;;;;;;;;;;;;;;;18.40;87.28;99519.41;4187354;28;20020;-71
2023/08/01 01:51:40;;;;;;;;;;;;;;;18.37;88.03;99512.53;4187117;28;19951;-72
2023/08/01 01:53:45;;;;;;;;;;;;;;;18.36;88.62;99512.81;4187222;28;20020;-71
2023/08/01 01:55:49;;;;;;;;;;;;;;;18.35;88.43;99520.19;4181798;28;20028;-72
2023/08/01 01:57:56;;;;;;;;;;;;;;;18.34;88.19;99515.78;4184865;28;20016;-72
2023/08/01 01:59:58;;;;;;;;;;;;;;;18.35;88.47;99509.25;4200305;28;20008;-71
2023/08/01 02:02:04;;;;;;;;;;;;;;;18.34;88.81;99499.38;4187053;28;20012;-70
2023/08/01 02:04:06;;;;;;;;;;;;;;;18.32;89.02;99498.84;4186865;28;20027;-71
2023/08/01 02:06:07;;;;;;;;;;;;;;;18.32;88.75;99489.78;4187677;28;20026;-72
2023/08/01 02:08:13;;;;;;;;;;;;;;;18.31;88.80;99480.78;4170186;28;20028;-71
2023/08/01 02:10:22;;;;;;;;;;;;;;;18.31;88.57;99474.50;4203032;28;20011;-71
2023/08/01 02:12:24;;;;;;;;;;;;;;;18.31;88.36;99469.03;4185811;28;19925;-71
2023/08/01 02:14:30;;;;;;;;;;;;;;;18.31;88.72;99469.84;4203580;28;20641;-71
2023/08/01 02:16:32;;;;;;;;;;;;;;;18.30;89.21;99467.38;4203907;28;20023;-72
2023/08/01 02:18:36;;;;;;;;;;;;;;;18.29;89.12;99468.44;4202954;28;19999;-72
2023/08/01 02:20:43;;;;;;;;;;;;;;;18.29;88.88;99458.34;4202983;28;20022;-72
2023/08/01 02:22:45;;;;;;;;;;;;;;;18.29;88.48;99452.88;4185750;28;20024;-72
2023/08/01 02:24:50;;;;;;;;;;;;;;;18.30;88.95;99456.44;4202030;28;20498;-71
2023/08/01 02:26:57;;;;;;;;;;;;;;;18.28;89.87;99459.44;4203108;28;20023;-71
2023/08/01 02:28:58;;;;;;;;;;;;;;;18.26;90.13;99450.69;4185332;28;20039;-72
2023/08/01 02:31:04;;;;;;;;;;;;;;;18.26;89.78;99447.09;4202674;28;19936;-72
2023/08/01 02:33:06;;;;;;;;;;;;;;;18.26;89.52;99447.09;4203116;28;20410;-71
2023/08/01 02:35:09;;;;;;;;;;;;;;;18.27;89.09;99444.09;4203510;28;20011;-71
2023/08/01 02:37:14;;;;;;;;;;;;;;;18.27;89.02;99446.84;4205395;28;20047;-72
2023/08/01 02:39:16;;;;;;;;;;;;;;;18.26;89.82;99442.47;4206495;28;20016;-72
2023/08/01 02:41:19;;;;;;;;;;;;;;;18.25;89.89;99440.81;4206832;28;20537;-72
2023/08/01 02:43:23;;;;;;;;;;;;;;;18.25;90.08;99440.00;4205256;28;20022;-72
2023/08/01 02:45:36;;;;;;;;;;;;;;;18.25;89.92;99438.09;4205359;28;20020;-72
2023/08/01 02:47:41;;;;;;;;;;;;;;;18.26;89.46;99436.16;4206134;28;20035;-72
2023/08/01 02:49:43;;;;;;;;;;;;;;;18.25;90.06;99440.81;4188532;28;20019;-72
2023/08/01 02:51:48;;;;;;;;;;;;;;;18.24;90.22;99435.63;4206383;28;20007;-71
2023/08/01 02:53:52;;;;;;;;;;;;;;;18.22;90.47;99438.59;4188907;28;20748;-71
2023/08/01 02:55:54;;;;;;;;;;;;;;;18.22;90.45;99432.31;4205101;28;20461;-71
2023/08/01 02:57:57;;;;;;;;;;;;;;;18.22;89.89;99422.22;4206194;28;20019;-71
2023/08/01 03:00:11;;;;;;;;;;;;;;;18.21;90.00;99431.47;4187541;28;20027;-71
2023/08/01 03:02:13;;;;;;;;;;;;;;;18.22;89.56;99424.94;4188496;28;20629;-71
2023/08/01 03:04:17;;;;;;;;;;;;;;;18.22;89.74;99419.47;4188662;28;20012;-71
2023/08/01 03:06:20;;;;;;;;;;;;;;;18.21;90.17;99417.81;4187746;28;20529;-71
2023/08/01 03:08:26;;;;;;;;;;;;;;;18.19;90.48;99411.78;4189585;28;20016;-71
2023/08/01 03:10:28;;;;;;;;;;;;;;;18.18;90.20;99397.31;4189437;28;20042;-71
2023/08/01 03:12:30;;;;;;;;;;;;;;;18.21;89.64;99395.94;4189332;28;20015;-72
2023/08/01 03:14:32;;;;;;;;;;;;;;;18.21;89.95;99404.16;4187692;28;19928;-72
2023/08/01 03:16:38;;;;;;;;;;;;;;;18.19;90.44;99412.59;4189735;28;20003;-71
2023/08/01 03:18:45;;;;;;;;;;;;;;;18.18;91.00;99407.41;4187550;28;20008;-71
2023/08/01 03:20:47;;;;;;;;;;;;;;;18.16;90.73;99393.19;4188332;28;20024;-71
2023/08/01 03:22:49;;;;;;;;;;;;;;;18.14;90.75;99389.91;4187300;28;20413;-71
2023/08/01 03:24:59;;;;;;;;;;;;;;;18.14;90.82;99385.25;4187263;28;20020;-71
2023/08/01 03:27:03;;;;;;;;;;;;;;;18.12;90.83;99386.59;4189175;28;20011;-71
2023/08/01 03:29:11;;;;;;;;;;;;;;;18.11;91.45;99384.97;4186524;28;20015;-71
2023/08/01 03:31:17;;;;;;;;;;;;;;;18.10;91.19;99377.84;4189112;28;20453;-71
2023/08/01 03:33:29;;;;;;;;;;;;;;;18.09;91.09;99378.94;4170892;28;20478;-71
2023/08/01 03:35:33;;;;;;;;;;;;;;;18.10;90.97;99380.56;4189120;28;19943;-71
2023/08/01 03:37:37;;;;;;;;;;;;;;;18.11;90.86;99376.75;4189759;28;20446;-72
2023/08/01 03:39:42;;;;;;;;;;;;;;;18.09;90.95;99368.81;4185531;28;20011;-71
2023/08/01 03:41:43;;;;;;;;;;;;;;;18.08;90.86;99364.44;4187577;28;20032;-71
2023/08/01 03:43:47;;;;;;;;;;;;;;;18.09;90.83;99365.28;4188439;28;20314;-71
2023/08/01 03:45:52;;;;;;;;;;;;;;;18.10;90.39;99369.63;4186198;28;20023;-71
2023/08/01 03:48:02;;;;;;;;;;;;;;;18.09;90.47;99368.81;4188196;28;20027;-71
2023/08/01 03:50:06;;;;;;;;;;;;;;;18.08;90.86;99366.34;4187952;28;20024;-71
2023/08/01 03:52:15;;;;;;;;;;;;;;;18.07;91.06;99364.69;4187053;28;20028;-71
2023/08/01 03:54:22;;;;;;;;;;;;;;;18.05;90.86;99354.03;4188449;28;20036;-71
2023/08/01 03:56:23;;;;;;;;;;;;;;;18.06;90.64;99352.13;4188595;28;19955;-71
2023/08/01 03:58:26;;;;;;;;;;;;;;;18.07;90.55;99360.06;4186033;28;20545;-71
2023/08/01 04:00:32;;;;;;;;;;;;;;;18.06;90.74;99352.94;4186883;28;20035;-71
2023/08/01 04:02:34;;;;;;;;;;;;;;;18.07;90.55;99361.97;4187234;28;20023;-72
2023/08/01 04:04:40;;;;;;;;;;;;;;;18.07;90.53;99359.22;4188983;28;20363;-71
2023/08/01 04:06:50;;;;;;;;;;;;;;;18.07;90.53;99362.81;4193692;28;20011;-70
2023/08/01 04:08:56;;;;;;;;;;;;;;;18.07;90.62;99364.69;4203648;28;20406;-70
2023/08/01 04:11:00;;;;;;;;;;;;;;;18.07;90.48;99359.22;4205223;28;20019;-71
2023/08/01 04:13:03;;;;;;;;;;;;;;;18.05;90.73;99353.22;4205126;28;20035;-71
2023/08/01 04:15:10;;;;;;;;;;;;;;;18.06;90.41;99350.22;4205169;28;20011;-71
2023/08/01 04:17:18;;;;;;;;;;;;;;;18.06;90.24;99347.47;4205399;28;20422;-72
2023/08/01 04:19:24;;;;;;;;;;;;;;;18.06;90.40;99339.28;4204578;28;20039;-72
2023/08/01 04:21:28;;;;;;;;;;;;;;;18.08;90.18;99348.03;4205791;28;20015;-72
2023/08/01 04:23:33;;;;;;;;;;;;;;;18.08;90.03;99355.41;4205330;28;20021;-72
2023/08/01 04:25:38;;;;;;;;;;;;;;;18.09;89.99;99336.03;4187005;28;20493;-71
2023/08/01 04:27:49;;;;;;;;;;;;;;;18.11;90.07;99338.50;4203570;28;20019;-72
2023/08/01 04:29:54;;;;;;;;;;;;;;;18.11;90.29;99342.06;4204883;28;20815;-71
2023/08/01 04:31:58;;;;;;;;;;;;;;;18.12;90.13;99340.13;4204898;28;20023;-72
2023/08/01 04:34:05;;;;;;;;;;;;;;;18.13;90.11;99344.53;4186535;28;20034;-72
2023/08/01 04:36:13;;;;;;;;;;;;;;;18.13;90.39;99344.53;4205127;28;20031;-72
2023/08/01 04:38:17;;;;;;;;;;;;;;;18.15;89.90;99339.63;4204510;28;19928;-72
2023/08/01 04:40:26;;;;;;;;;;;;;;;18.18;89.40;99339.94;4204330;28;20014;-72
2023/08/01 04:42:35;;;;;;;;;;;;;;;18.21;89.26;99346.78;4205269;28;19928;-72
2023/08/01 04:44:39;;;;;;;;;;;;;;;18.22;89.62;99340.22;4205211;28;20544;-71
2023/08/01 04:46:55;;;;;;;;;;;;;;;18.23;89.74;99343.78;4204140;28;20023;-72
2023/08/01 04:48:58;;;;;;;;;;;;;;;18.23;90.00;99327.38;4204146;28;20018;-71
2023/08/01 04:51:03;;;;;;;;;;;;;;;18.23;90.11;99322.75;4204638;28;20010;-72
2023/08/01 04:53:07;;;;;;;;;;;;;;;18.23;90.49;99320.03;4204982;28;20011;-71
2023/08/01 04:55:09;;;;;;;;;;;;;;;18.21;90.87;99311.25;4204148;28;20023;-71
2023/08/01 04:57:12;;;;;;;;;;;;;;;18.19;91.15;99308.78;4204336;28;20011;-72
2023/08/01 04:59:21;;;;;;;;;;;;;;;18.18;91.24;99312.63;4204601;28;20378;-71
2023/08/01 05:01:25;;;;;;;;;;;;;;;18.18;91.39;99309.88;4202483;28;20425;-72
2023/08/01 05:03:27;;;;;;;;;;;;;;;18.18;90.81;99309.88;4203295;28;19967;-71
2023/08/01 05:05:29;;;;;;;;;;;;;;;18.21;90.73;99302.22;4203757;28;20023;-71
2023/08/01 05:07:49;;;;;;;;;;;;;;;18.22;90.41;99303.88;4204547;28;20032;-71
2023/08/01 05:09:51;;;;;;;;;;;;;;;18.25;90.08;99292.44;4203932;28;20019;-71
2023/08/01 05:11:53;;;;;;;;;;;;;;;18.24;90.17;99291.59;4204883;28;20356;-71
2023/08/01 05:13:57;;;;;;;;;;;;;;;18.25;90.17;99300.63;4203239;28;20026;-70
2023/08/01 05:15:59;;;;;;;;;;;;;;;18.25;90.18;99290.50;4203374;28;20027;-71
2023/08/01 05:18:10;;;;;;;;;;;;;;;18.26;89.95;99292.16;4203741;28;20050;-71
2023/08/01 05:20:17;;;;;;;;;;;;;;;18.26;90.26;99296.78;4203441;28;19931;-71
2023/08/01 05:22:19;;;;;;;;;;;;;;;18.25;90.46;99290.50;4202718;28;20450;-71
2023/08/01 05:24:21;;;;;;;;;;;;;;;18.25;90.56;99278.78;4204482;28;20069;-71
2023/08/01 05:26:24;;;;;;;;;;;;;;;18.25;90.10;99278.78;4199768;28;19964;-71
2023/08/01 05:28:27;;;;;;;;;;;;;;;18.26;89.90;99280.41;4203496;28;20019;-72
2023/08/01 05:30:31;;;;;;;;;;;;;;;18.25;90.09;99265.91;4186298;28;20509;-72
2023/08/01 05:32:40;;;;;;;;;;;;;;;18.26;90.20;99266.72;4203669;28;20024;-71
2023/08/01 05:34:59;;;;;;;;;;;;;;;18.27;89.46;99265.66;4203626;28;20047;-71
2023/08/01 05:37:04;;;;;;;;;;;;;;;18.27;89.91;99257.47;4204305;28;20019;-72
2023/08/01 05:39:25;;;;;;;;;;;;;;;18.27;89.94;99266.47;4203009;28;20411;-73
2023/08/01 05:41:31;;;;;;;;;;;;;;;18.26;89.84;99264.00;4207022;28;19960;-72
2023/08/01 05:43:36;;;;;;;;;;;;;;;18.27;90.20;99263.75;4206180;28;20011;-72
2023/08/01 05:45:40;;;;;;;;;;;;;;;18.27;90.21;99263.75;4153183;28;19976;-72
2023/08/01 05:47:45;;;;;;;;;;;;;;;18.29;89.94;99252.53;4203096;28;20022;-72
2023/08/01 05:49:49;;;;;;;;;;;;;;;18.30;89.35;99255.00;4201610;28;20015;-72
2023/08/01 05:51:54;;;;;;;;;;;;;;;18.32;89.12;99261.06;4202802;28;20015;-71
2023/08/01 05:53:55;;;;;;;;;;;;;;;18.33;89.19;99256.41;4203523;28;20023;-71
2023/08/01 05:55:57;;;;;;;;;;;;;;;18.33;89.23;99262.69;4184035;28;19925;-71
2023/08/01 05:57:59;;;;;;;;;;;;;;;18.33;89.20;99257.22;4201829;28;20020;-72
2023/08/01 06:00:08;;;;;;;;;;;;;;;18.34;89.34;99258.06;4202372;28;20454;-71
2023/08/01 06:02:17;;;;;;;;;;;;;;;18.33;89.67;99250.94;4202433;28;19978;-71
2023/08/01 06:04:21;;;;;;;;;;;;;;;18.32;89.64;99260.22;4203592;28;20019;-71
2023/08/01 06:06:29;;;;;;;;;;;;;;;18.33;89.72;99257.22;4202859;28;20015;-71
2023/08/01 06:08:31;;;;;;;;;;;;;;;18.32;89.83;99252.84;4203472;28;20015;-71
2023/08/01 06:10:44;;;;;;;;;;;;;;;18.33;89.59;99254.47;4202842;28;20023;-71
2023/08/01 06:12:48;;;;;;;;;;;;;;;18.36;88.95;99259.41;4202989;28;20043;-70
2023/08/01 06:14:50;;;;;;;;;;;;;;;18.35;89.43;99274.19;4203371;28;20031;-71
2023/08/01 06:16:57;;;;;;;;;;;;;;;18.35;89.71;99260.53;4203622;28;20020;-71
2023/08/01 06:19:01;;;;;;;;;;;;;;;18.35;89.60;99266.00;4203355;28;20012;-72
2023/08/01 06:21:14;;;;;;;;;;;;;;;18.38;89.34;99267.34;4202412;28;20011;-71
2023/08/01 06:23:16;;;;;;;;;;;;;;;18.39;89.51;99257.28;4203465;28;20454;-71
2023/08/01 06:25:18;;;;;;;;;;;;;;;18.38;89.75;99250.97;4185432;28;20414;-72
2023/08/01 06:27:20;;;;;;;;;;;;;;;18.38;89.65;99256.44;4203700;28;20038;-70
2023/08/01 06:29:24;;;;;;;;;;;;;;;18.37;89.92;99244.69;4203161;28;20019;-70
2023/08/01 06:31:33;;;;;;;;;;;;;;;18.37;89.81;99252.88;4203017;28;20020;-71
2023/08/01 06:33:40;;;;;;;;;;;;;;;18.39;89.57;99235.41;4202838;28;20047;-73
2023/08/01 06:35:42;;;;;;;;;;;;;;;18.41;89.47;99244.97;4202297;28;20015;-72
2023/08/01 06:37:46;;;;;;;;;;;;;;;18.41;90.13;99252.34;4202321;28;20026;-71
2023/08/01 06:39:48;;;;;;;;;;;;;;;18.40;89.88;99240.59;4202313;28;20007;-72
2023/08/01 06:41:50;;;;;;;;;;;;;;;18.39;89.99;99233.47;4202851;28;20018;-72
2023/08/01 06:43:55;;;;;;;;;;;;;;;18.41;89.76;99241.41;4202133;28;19929;-70
2023/08/01 06:45:59;;;;;;;;;;;;;;;18.41;90.01;99241.41;4201273;28;20023;-71
2023/08/01 06:48:01;;;;;;;;;;;;;;;18.37;90.29;99244.69;4201708;28;20551;-70
2023/08/01 06:50:07;;;;;;;;;;;;;;;18.37;90.84;99241.13;4201982;28;20417;-72
2023/08/01 06:52:09;;;;;;;;;;;;;;;18.36;91.19;99243.03;4183538;28;20011;-71
2023/08/01 06:54:12;;;;;;;;;;;;;;;18.36;90.90;99242.22;4202671;28;20055;-72
2023/08/01 06:56:13;;;;;;;;;;;;;;;18.36;90.67;99250.41;4202663;28;20022;-74
2023/08/01 06:58:15;;;;;;;;;;;;;;;18.37;90.77;99244.69;4202266;28;20265;-71
2023/08/01 07:00:18;;;;;;;;;;;;;;;18.37;90.91;99239.22;4201865;28;20489;-71
2023/08/01 07:02:20;;;;;;;;;;;;;;;18.37;90.49;99241.13;4202426;28;20023;-71
2023/08/01 07:04:23;;;;;;;;;;;;;;;18.36;91.15;99234.81;4184326;28;20015;-72
2023/08/01 07:06:28;;;;;;;;;;;;;;;18.36;91.12;99244.94;4202031;28;20043;-74
2023/08/01 07:08:33;;;;;;;;;;;;;;;18.34;91.36;99233.47;4202693;28;20028;-73
2023/08/01 07:10:36;;;;;;;;;;;;;;;18.34;91.18;99245.22;4180555;28;20024;-73
2023/08/01 07:12:41;;;;;;;;;;;;;;;18.34;91.58;99244.41;4202256;28;20035;-72
2023/08/01 07:14:43;;;;;;;;;;;;;;;18.33;91.54;99243.56;4200934;28;20015;-73
2023/08/01 07:16:45;;;;;;;;;;;;;;;18.33;91.77;99235.34;4202169;28;20015;-73
2023/08/01 07:18:48;;;;;;;;;;;;;;;18.36;91.07;99232.09;4201463;28;20023;-73
2023/08/01 07:20:59;;;;;;;;;;;;;;;18.38;90.81;99231.81;4202080;28;20024;-72
2023/08/01 07:23:01;;;;;;;;;;;;;;;18.40;90.75;99234.28;4205035;28;20019;-72
2023/08/01 07:25:03;;;;;;;;;;;;;;;18.41;91.04;99239.50;4205835;28;20454;-73
2023/08/01 07:27:07;;;;;;;;;;;;;;;18.43;90.52;99225.56;4205646;28;20050;-75
2023/08/01 07:29:11;;;;;;;;;;;;;;;18.44;90.36;99229.94;4203752;28;20449;-73
2023/08/01 07:31:17;;;;;;;;;;;;;;;18.44;90.62;99224.47;4186854;28;20390;-73
2023/08/01 07:33:22;;;;;;;;;;;;;;;18.45;90.53;99226.94;4205274;28;20348;-72
2023/08/01 07:35:24;;;;;;;;;;;;;;;18.46;90.51;99225.03;4205094;28;20035;-73
2023/08/01 07:37:31;;;;;;;;;;;;;;;18.48;90.45;99215.50;4204557;28;20020;-72
2023/08/01 07:39:34;;;;;;;;;;;;;;;18.50;90.43;99201.56;4204302;28;20603;-72
2023/08/01 07:41:36;;;;;;;;;;;;;;;18.51;90.13;99198.56;4204367;28;20920;-72
2023/08/01 07:43:42;;;;;;;;;;;;;;;18.54;89.68;99198.03;4203063;28;20018;-73
2023/08/01 07:45:46;;;;;;;;;;;;;;;18.58;89.51;99203.75;4203884;28;19950;-75
2023/08/01 07:47:50;;;;;;;;;;;;;;;18.61;89.61;99205.16;4203461;28;20051;-72
2023/08/01 07:49:52;;;;;;;;;;;;;;;18.64;89.57;99210.09;4203883;28;20461;-73
2023/08/01 07:51:54;;;;;;;;;;;;;;;18.66;89.43;99216.09;4203612;28;20011;-73
2023/08/01 07:53:59;;;;;;;;;;;;;;;18.68;89.33;99214.75;4203113;28;20031;-72
2023/08/01 07:56:02;;;;;;;;;;;;;;;18.71;89.26;99214.22;4204501;28;20031;-71
2023/08/01 07:58:04;;;;;;;;;;;;;;;18.73;89.40;99216.69;4186574;28;20059;-73
2023/08/01 08:00:11;;;;;;;;;;;;;;;18.76;89.06;99207.09;4203020;28;20015;-73
2023/08/01 08:02:17;;;;;;;;;;;;;;;18.80;88.65;99216.44;4205664;28;20028;-72
2023/08/01 08:04:19;;;;;;;;;;;;;;;18.81;88.50;99215.31;4186343;28;19928;-72
2023/08/01 08:06:22;;;;;;;;;;;;;;;18.82;88.35;99211.50;4204268;28;19940;-72
2023/08/01 08:08:26;;;;;;;;;;;;;;;18.84;88.52;99214.78;4204742;28;20030;-72
2023/08/01 08:10:28;;;;;;;;;;;;;;;18.86;88.41;99202.53;4203897;28;20022;-72
2023/08/01 08:12:29;;;;;;;;;;;;;;;18.85;88.23;99202.78;4205153;28;20441;-71
2023/08/01 08:14:32;;;;;;;;;;;;;;;18.88;88.36;99202.25;4203869;28;20023;-72
2023/08/01 08:16:38;;;;;;;;;;;;;;;18.89;88.00;99204.72;4204776;28;19931;-70
2023/08/01 08:18:43;;;;;;;;;;;;;;;18.93;87.80;99194.06;4203986;28;19996;-71
2023/08/01 08:20:46;;;;;;;;;;;;;;;18.97;87.60;99205.28;4185483;28;20080;-71
2023/08/01 08:22:48;;;;;;;;;;;;;;;18.97;87.55;99202.56;4204289;28;20023;-70
2023/08/01 08:24:53;;;;;;;;;;;;;;;18.99;87.42;99203.91;4169769;28;20047;-69
2023/08/01 08:26:56;;;;;;;;;;;;;;;18.99;87.46;99203.91;4203050;28;19935;-69
2023/08/01 08:29:04;;;;;;;;;;;;;;;18.99;87.42;99195.72;4183144;28;20027;-71
2023/08/01 08:31:07;;;;;;;;;;;;;;;19.01;87.16;99199.00;4202248;28;20015;-71
2023/08/01 08:33:10;;;;;;;;;;;;;;;19.04;87.08;99195.75;4202975;28;20011;-70
2023/08/01 08:35:12;;;;;;;;;;;;;;;19.08;86.46;99190.53;4201649;28;19999;-70
2023/08/01 08:37:14;;;;;;;;;;;;;;;19.13;86.28;99186.97;4202346;28;20009;-72
2023/08/01 08:39:19;;;;;;;;;;;;;;;19.16;85.71;99184.53;4168033;28;20008;-72
2023/08/01 08:41:22;;;;;;;;;;;;;;;19.20;85.79;99182.06;4203003;28;20051;-70
2023/08/01 08:43:24;;;;;;;;;;;;;;;19.23;85.23;99186.97;4202254;28;20362;-72
2023/08/01 08:45:29;;;;;;;;;;;;;;;19.27;85.05;99182.63;4202435;28;20012;-71
2023/08/01 08:47:31;;;;;;;;;;;;;;;19.31;84.93;99204.78;4203150;28;20461;-71
2023/08/01 08:49:34;;;;;;;;;;;;;;;19.35;84.74;99201.22;4201577;28;20015;-72
2023/08/01 08:51:37;;;;;;;;;;;;;;;19.36;84.86;99189.19;4202263;28;20016;-71
2023/08/01 08:53:39;;;;;;;;;;;;;;;19.39;84.33;99185.91;4202046;28;20023;-73
2023/08/01 08:55:42;;;;;;;;;;;;;;;19.43;84.09;99199.88;4203104;28;21397;-73
2023/08/01 08:57:46;;;;;;;;;;;;;;;19.47;83.94;99189.19;4202838;28;20048;-71
2023/08/01 08:59:48;;;;;;;;;;;;;;;19.50;83.79;99191.38;4202286;28;20023;-69
2023/08/01 09:01:50;;;;;;;;;;;;;;;19.54;83.35;99187.00;4202496;28;20007;-70
2023/08/01 09:03:52;;;;;;;;;;;;;;;19.55;82.71;99183.19;4202704;28;20428;-69
2023/08/01 09:06:04;;;;;;;;;;;;;;;19.58;82.53;99186.19;4203164;28;20002;-69
2023/08/01 09:08:06;;;;;;;;;;;;;;;19.61;82.63;99188.38;4203280;28;20022;-70
2023/08/01 09:10:08;;;;;;;;;;;;;;;19.64;82.67;99195.22;4202432;28;20015;-70
2023/08/01 09:12:10;;;;;;;;;;;;;;;19.67;82.38;99189.19;4202565;28;20014;-70
2023/08/01 09:14:11;;;;;;;;;;;;;;;19.69;81.67;99191.66;4201187;28;20026;-70
2023/08/01 09:16:13;;;;;;;;;;;;;;;19.72;81.60;99185.63;4181648;28;20067;-71
2023/08/01 09:18:15;;;;;;;;;;;;;;;19.74;81.40;99184.25;4201541;28;20023;-71
2023/08/01 09:20:18;;;;;;;;;;;;;;;19.75;81.15;99172.19;4201995;28;20377;-70
2023/08/01 09:22:24;;;;;;;;;;;;;;;19.79;80.62;99169.75;4202946;28;20027;-70
2023/08/01 09:24:25;;;;;;;;;;;;;;;19.82;80.47;99177.41;4201520;28;20028;-70
2023/08/01 09:26:27;;;;;;;;;;;;;;;19.85;80.69;99171.38;4201947;28;19924;-70
2023/08/01 09:28:29;;;;;;;;;;;;;;;19.87;80.33;99169.19;4184652;28;20019;-71
2023/08/01 09:30:32;;;;;;;;;;;;;;;19.90;80.03;99173.28;4203046;28;20027;-71
2023/08/01 09:32:34;;;;;;;;;;;;;;;19.92;79.93;99163.72;4202827;28;20002;-70
2023/08/01 09:34:36;;;;;;;;;;;;;;;19.96;79.06;99174.94;4202608;28;20354;-71
2023/08/01 09:36:38;;;;;;;;;;;;;;;19.98;78.87;99161.75;4202765;28;20023;-70
2023/08/01 09:38:42;;;;;;;;;;;;;;;20.01;78.65;99168.63;4201735;28;20400;-70
2023/08/01 09:40:44;;;;;;;;;;;;;;;20.02;78.72;99160.13;4200798;28;20027;-71
2023/08/01 09:42:46;;;;;;;;;;;;;;;20.03;78.21;99172.72;4202592;28;20133;-71
2023/08/01 09:44:49;;;;;;;;;;;;;;;20.04;77.75;99181.75;4202630;28;19924;-71
2023/08/01 09:46:56;;;;;;;;;;;;;;;20.04;77.85;99179.84;4185254;28;19959;-71
2023/08/01 09:49:07;;;;;;;;;;;;;;;20.03;77.67;99189.19;4203114;28;19963;-71
2023/08/01 09:51:09;;;;;;;;;;;;;;;20.01;77.71;99216.00;4201907;28;20450;-71
2023/08/01 09:53:14;;;;;;;;;;;;;;;19.97;77.70;99195.75;4185380;28;19929;-72
2023/08/01 09:55:18;;;;;;;;;;;;;;;19.93;78.04;99192.72;4202847;28;20010;-72
2023/08/01 09:57:20;;;;;;;;;;;;;;;19.89;78.30;99174.38;4203433;28;20481;-72
2023/08/01 09:59:24;;;;;;;;;;;;;;;19.87;78.77;99168.38;4202711;28;20015;-72
2023/08/01 10:01:27;;;;;;;;;;;;;;;19.85;78.87;99178.78;4202555;28;20027;-73
2023/08/01 10:03:32;;;;;;;;;;;;;;;19.84;78.85;99182.63;4168984;28;19971;-72
2023/08/01 10:05:35;;;;;;;;;;;;;;;19.85;79.04;99181.53;4202054;28;20010;-73
2023/08/01 10:07:36;;;;;;;;;;;;;;;19.84;79.13;99180.69;4201879;28;20034;-72
2023/08/01 10:09:38;;;;;;;;;;;;;;;19.84;79.30;99185.34;4202640;28;20445;-71
2023/08/01 10:11:42;;;;;;;;;;;;;;;19.84;79.22;99183.44;4199937;28;20055;-71
2023/08/01 10:13:44;;;;;;;;;;;;;;;19.83;79.04;99184.56;4200800;28;20039;-71
2023/08/01 10:15:47;;;;;;;;;;;;;;;19.83;79.01;99175.50;4199601;28;20461;-71
2023/08/01 10:17:50;;;;;;;;;;;;;;;19.82;78.95;99166.47;4201060;28;20022;-71
2023/08/01 10:19:52;;;;;;;;;;;;;;;19.83;78.66;99172.75;4201911;28;20026;-71
2023/08/01 10:21:55;;;;;;;;;;;;;;;19.83;78.84;99183.72;4203170;28;20024;-71
2023/08/01 10:23:57;;;;;;;;;;;;;;;19.82;78.64;99177.41;4202961;28;20109;-71
2023/08/01 10:26:00;;;;;;;;;;;;;;;19.82;78.78;99173.88;4184341;28;20581;-71
2023/08/01 10:28:03;;;;;;;;;;;;;;;19.80;78.40;99174.97;4202959;28;20453;-71
2023/08/01 10:30:07;;;;;;;;;;;;;;;19.80;78.60;99168.66;4202635;28;20468;-71
2023/08/01 10:32:09;;;;;;;;;;;;;;;19.79;78.50;99172.50;4202410;28;20023;-71
2023/08/01 10:34:13;;;;;;;;;;;;;;;19.79;78.60;99180.72;4184205;28;20024;-71
2023/08/01 10:36:16;;;;;;;;;;;;;;;19.78;78.75;99163.47;4202355;28;20405;-71
2023/08/01 10:38:18;;;;;;;;;;;;;;;19.79;78.80;99162.34;4202692;28;20028;-71
2023/08/01 10:40:19;;;;;;;;;;;;;;;19.80;78.51;99174.16;4201397;28;20030;-71
2023/08/01 10:42:21;;;;;;;;;;;;;;;19.81;78.65;99164.81;4202533;28;20010;-71
2023/08/01 10:44:25;;;;;;;;;;;;;;;19.82;78.65;99157.44;4201278;28;20019;-72
2023/08/01 10:46:27;;;;;;;;;;;;;;;19.82;78.59;99165.66;4184071;28;20027;-72
2023/08/01 10:48:29;;;;;;;;;;;;;;;19.82;78.40;99174.69;4199952;28;20019;-71